createdAt,value
2024-05-09T00:00:06.731Z,146.60
2024-05-09T00:01:05.227Z,146.70
2024-05-09T00:02:05.319Z,146.94
2024-05-09T00:03:05.255Z,144.91
2024-05-09T00:04:05.320Z,146.64
2024-05-09T00:05:05.300Z,147.04
2024-05-09T00:06:05.446Z,147.24
2024-05-09T00:07:05.175Z,147.32
2024-05-09T00:08:05.335Z,147.36
2024-05-09T00:09:05.200Z,147.83
2024-05-09T00:10:07.130Z,147.74
2024-05-09T00:11:05.262Z,146.96
2024-05-09T00:12:05.412Z,147.39
2024-05-09T00:13:05.422Z,147.61
2024-05-09T00:14:05.202Z,147.11
2024-05-09T00:15:05.189Z,145.88
2024-05-09T00:16:05.181Z,146.51
2024-05-09T00:17:05.235Z,145.91
2024-05-09T00:18:05.998Z,146.64
2024-05-09T00:19:05.367Z,146.13
2024-05-09T00:20:13.968Z,147.63
2024-05-09T00:21:06.403Z,146.37
2024-05-09T00:22:05.221Z,147.69
2024-05-09T00:23:05.237Z,147.72
2024-05-09T00:24:05.215Z,145.33
2024-05-09T00:25:05.195Z,146.02
2024-05-09T00:26:05.323Z,147.13
2024-05-09T00:27:05.201Z,144.70
2024-05-09T00:28:05.203Z,144.85
2024-05-09T00:29:05.316Z,145.81
2024-05-09T00:30:07.199Z,143.94
2024-05-09T00:31:05.232Z,143.73
2024-05-09T00:32:05.393Z,141.93
2024-05-09T00:33:06.541Z,145.32
2024-05-09T00:34:05.830Z,142.50
2024-05-09T00:35:05.442Z,142.54
2024-05-09T00:36:05.445Z,144.90
2024-05-09T00:37:05.478Z,142.85
2024-05-09T00:38:05.604Z,142.93
2024-05-09T00:39:05.461Z,143.08
2024-05-09T00:40:07.439Z,143.22
2024-05-09T00:41:05.517Z,142.88
2024-05-09T00:42:05.485Z,143.11
2024-05-09T00:43:05.512Z,143.52
2024-05-09T00:44:05.523Z,143.85
2024-05-09T00:45:05.498Z,144.05
2024-05-09T00:46:05.479Z,141.63
2024-05-09T00:47:05.657Z,144.22
2024-05-09T00:48:05.675Z,143.35
2024-05-09T00:49:05.593Z,143.00
2024-05-09T00:50:09.943Z,142.39
2024-05-09T00:51:06.633Z,142.51
2024-05-09T00:52:05.494Z,142.79
2024-05-09T00:53:05.539Z,142.70
2024-05-09T00:54:05.523Z,144.61
2024-05-09T00:55:05.499Z,142.40
2024-05-09T00:56:05.562Z,143.59
2024-05-09T00:57:05.527Z,142.54
2024-05-09T00:58:05.506Z,142.67
2024-05-09T00:59:05.632Z,142.72
2024-05-09T01:00:15.012Z,143.11
2024-05-09T01:01:06.568Z,143.11
2024-05-09T01:02:05.620Z,142.69
2024-05-09T01:03:05.938Z,142.45
2024-05-09T01:04:05.602Z,141.91
2024-05-09T01:05:05.640Z,141.58
2024-05-09T01:06:05.564Z,141.52
2024-05-09T01:07:05.605Z,142.47
2024-05-09T01:08:05.576Z,143.21
2024-05-09T01:09:05.541Z,142.30
2024-05-09T01:10:09.194Z,140.97
2024-05-09T01:11:05.654Z,141.06
2024-05-09T01:12:05.748Z,141.16
2024-05-09T01:13:06.068Z,141.93
2024-05-09T01:14:05.608Z,141.72
2024-05-09T01:15:05.527Z,142.71
2024-05-09T01:16:05.522Z,139.45
2024-05-09T01:17:05.548Z,139.06
2024-05-09T01:18:05.626Z,142.49
2024-05-09T01:19:05.615Z,140.97
2024-05-09T01:20:06.420Z,140.58
2024-05-09T01:21:05.546Z,140.66
2024-05-09T01:22:05.540Z,140.63
2024-05-09T01:23:05.565Z,140.61
2024-05-09T01:24:05.548Z,141.17
2024-05-09T01:25:05.525Z,140.58
2024-05-09T01:26:05.594Z,138.95
2024-05-09T01:27:05.614Z,138.53
2024-05-09T01:28:05.566Z,139.55
2024-05-09T01:29:05.610Z,139.03
2024-05-09T01:30:09.243Z,136.42
2024-05-09T01:31:05.545Z,136.52
2024-05-09T01:32:05.703Z,137.22
2024-05-09T01:33:07.025Z,137.12
2024-05-09T01:34:05.628Z,136.66
2024-05-09T01:35:05.605Z,137.11
2024-05-09T01:36:05.554Z,137.69
2024-05-09T01:37:05.655Z,138.48
2024-05-09T01:38:05.767Z,141.61
2024-05-09T01:39:05.560Z,139.49
2024-05-09T01:40:09.553Z,140.50
2024-05-09T01:41:06.581Z,139.87
2024-05-09T01:42:05.568Z,140.71
2024-05-09T01:43:05.592Z,140.14
2024-05-09T01:44:05.616Z,139.51
2024-05-09T01:45:05.567Z,138.44
2024-05-09T01:46:05.594Z,135.94
2024-05-09T01:47:05.670Z,136.54
2024-05-09T01:48:05.795Z,136.97
2024-05-09T01:49:05.767Z,135.95
2024-05-09T01:50:08.970Z,135.17
2024-05-09T01:51:06.697Z,135.33
2024-05-09T01:52:05.581Z,135.63
2024-05-09T01:53:05.664Z,135.43
2024-05-09T01:54:05.581Z,137.54
2024-05-09T01:55:06.707Z,136.23
2024-05-09T01:56:05.614Z,136.08
2024-05-09T01:57:05.618Z,135.26
2024-05-09T01:58:05.661Z,134.34
2024-05-09T01:59:05.670Z,136.17
2024-05-09T02:00:07.847Z,137.47
2024-05-09T02:01:05.782Z,137.55
2024-05-09T02:02:05.819Z,135.83
2024-05-09T02:03:05.758Z,136.45
2024-05-09T02:04:05.965Z,137.49
2024-05-09T02:05:05.898Z,136.39
2024-05-09T02:06:05.770Z,136.79
2024-05-09T02:07:05.595Z,137.75
2024-05-09T02:08:05.646Z,136.28
2024-05-09T02:09:05.586Z,133.71
2024-05-09T02:10:13.596Z,134.27
2024-05-09T02:11:06.650Z,134.36
2024-05-09T02:12:05.712Z,133.00
2024-05-09T02:13:05.632Z,134.88
2024-05-09T02:14:05.629Z,135.92
2024-05-09T02:15:05.591Z,134.17
2024-05-09T02:16:05.610Z,134.57
2024-05-09T02:17:05.630Z,133.24
2024-05-09T02:18:05.842Z,133.02
2024-05-09T02:19:05.682Z,134.83
2024-05-09T02:20:06.270Z,135.04
2024-05-09T02:21:05.631Z,135.20
2024-05-09T02:22:05.636Z,133.55
2024-05-09T02:23:05.743Z,135.15
2024-05-09T02:24:05.630Z,133.51
2024-05-09T02:25:05.620Z,134.83
2024-05-09T02:26:05.643Z,132.29
2024-05-09T02:27:05.659Z,132.32
2024-05-09T02:28:05.655Z,132.69
2024-05-09T02:29:05.659Z,132.94
2024-05-09T02:30:12.260Z,132.88
2024-05-09T02:31:06.622Z,132.41
2024-05-09T02:32:05.696Z,132.67
2024-05-09T02:33:05.834Z,133.17
2024-05-09T02:34:05.724Z,134.98
2024-05-09T02:35:05.652Z,134.52
2024-05-09T02:36:05.647Z,132.41
2024-05-09T02:37:05.740Z,132.49
2024-05-09T02:38:05.748Z,132.95
2024-05-09T02:39:05.674Z,133.57
2024-05-09T02:40:07.091Z,133.09
2024-05-09T02:41:05.667Z,136.63
2024-05-09T02:42:05.651Z,132.48
2024-05-09T02:43:05.932Z,132.53
2024-05-09T02:44:05.724Z,133.16
2024-05-09T02:45:05.656Z,134.02
2024-05-09T02:46:05.661Z,134.82
2024-05-09T02:47:05.756Z,135.14
2024-05-09T02:48:05.914Z,136.73
2024-05-09T02:49:05.720Z,134.26
2024-05-09T02:50:07.812Z,133.35
2024-05-09T02:51:05.765Z,132.21
2024-05-09T02:52:05.677Z,133.92
2024-05-09T02:53:05.979Z,131.64
2024-05-09T02:54:05.713Z,132.83
2024-05-09T02:55:05.739Z,131.84
2024-05-09T02:56:05.869Z,132.12
2024-05-09T02:57:06.029Z,132.94
2024-05-09T02:58:05.851Z,133.64
2024-05-09T02:59:05.942Z,130.58
2024-05-09T03:00:06.196Z,131.73
2024-05-09T03:01:06.041Z,132.29
2024-05-09T03:02:06.144Z,132.59
2024-05-09T03:03:06.390Z,132.61
2024-05-09T03:04:06.245Z,132.72
2024-05-09T03:05:06.097Z,131.99
2024-05-09T03:06:06.007Z,131.77
2024-05-09T03:07:06.030Z,131.37
2024-05-09T03:08:06.066Z,130.77
2024-05-09T03:09:06.002Z,131.62
2024-05-09T03:10:12.161Z,133.40
2024-05-09T03:11:07.095Z,133.45
2024-05-09T03:12:06.105Z,132.98
2024-05-09T03:13:06.029Z,129.81
2024-05-09T03:14:06.073Z,130.66
2024-05-09T03:15:06.018Z,132.19
2024-05-09T03:16:06.029Z,132.28
2024-05-09T03:17:06.062Z,130.97
2024-05-09T03:18:06.325Z,131.44
2024-05-09T03:19:06.077Z,129.80
2024-05-09T03:20:11.638Z,130.73
2024-05-09T03:21:07.207Z,130.85
2024-05-09T03:22:06.036Z,130.91
2024-05-09T03:23:06.447Z,130.79
2024-05-09T03:24:06.040Z,129.96
2024-05-09T03:25:06.046Z,131.06
2024-05-09T03:26:06.092Z,130.04
2024-05-09T03:27:06.052Z,129.33
2024-05-09T03:28:06.102Z,126.64
2024-05-09T03:29:06.077Z,128.41
2024-05-09T03:30:07.634Z,131.48
2024-05-09T03:31:06.038Z,130.42
2024-05-09T03:32:06.151Z,130.58
2024-05-09T03:33:06.178Z,128.23
2024-05-09T03:34:06.160Z,124.48
2024-05-09T03:35:06.073Z,120.73
2024-05-09T03:36:09.091Z,117.03
2024-05-09T03:37:06.074Z,116.25
2024-05-09T03:38:06.079Z,110.92
2024-05-09T03:39:06.096Z,105.15
2024-05-09T03:40:09.339Z,96.09
2024-05-09T03:41:07.093Z,94.27
2024-05-09T03:42:06.059Z,90.27
2024-05-09T03:43:06.077Z,82.66
2024-05-09T03:44:06.108Z,73.76
2024-05-09T03:45:06.060Z,66.24
2024-05-09T03:46:06.043Z,60.39
2024-05-09T03:47:06.171Z,54.45
2024-05-09T03:48:06.157Z,50.13
2024-05-09T03:49:06.113Z,50.00
2024-05-09T03:50:11.957Z,50.48
2024-05-09T03:51:07.292Z,47.17
2024-05-09T03:52:06.084Z,42.54
2024-05-09T03:53:06.155Z,37.87
2024-05-09T03:54:06.061Z,33.43
2024-05-09T03:55:06.056Z,30.34
2024-05-09T03:56:06.112Z,35.17
2024-05-09T03:57:06.087Z,41.70
2024-05-09T03:58:06.191Z,47.20
2024-05-09T03:59:06.113Z,49.65
2024-05-09T04:00:12.230Z,50.00
2024-05-09T04:01:07.098Z,48.38
2024-05-09T04:02:06.202Z,45.50
2024-05-09T04:03:08.236Z,44.16
2024-05-09T04:04:06.170Z,43.54
2024-05-09T04:05:06.156Z,42.22
2024-05-09T04:06:06.081Z,39.63
2024-05-09T04:07:06.151Z,37.57
2024-05-09T04:08:06.193Z,36.61
2024-05-09T04:09:06.117Z,41.82
2024-05-09T04:10:09.002Z,48.48
2024-05-09T04:11:07.176Z,48.03
2024-05-09T04:12:06.187Z,47.09
2024-05-09T04:13:06.142Z,46.41
2024-05-09T04:14:06.101Z,45.24
2024-05-09T04:15:08.155Z,43.99
2024-05-09T04:16:06.103Z,44.80
2024-05-09T04:17:06.141Z,43.69
2024-05-09T04:18:06.412Z,43.22
2024-05-09T04:19:06.249Z,42.26
2024-05-09T04:20:08.359Z,42.41
2024-05-09T04:21:15.811Z,50.00
2024-05-09T04:22:15.761Z,50.00
2024-05-09T04:23:15.830Z,50.00
2024-05-09T04:24:15.746Z,50.00
2024-05-09T04:25:15.752Z,50.00
2024-05-09T04:26:15.787Z,50.00
2024-05-09T04:27:15.762Z,50.31
2024-05-09T04:28:15.761Z,49.97
2024-05-09T04:29:15.815Z,47.97
2024-05-09T04:30:25.346Z,47.13
2024-05-09T04:31:27.859Z,50.00
2024-05-09T04:32:28.064Z,50.00
2024-05-09T04:33:28.008Z,50.00
2024-05-09T04:34:27.969Z,50.00
2024-05-09T04:35:27.960Z,50.00
2024-05-09T04:36:27.878Z,50.28
2024-05-09T04:37:27.892Z,50.00
2024-05-09T04:38:27.912Z,50.00
2024-05-09T04:39:27.890Z,50.00
2024-05-09T04:40:33.346Z,50.00
2024-05-09T04:41:28.967Z,50.03
2024-05-09T04:42:27.926Z,48.48
2024-05-09T04:43:27.879Z,46.64
2024-05-09T04:44:27.986Z,45.55
2024-05-09T04:45:27.893Z,44.24
2024-05-09T04:46:27.904Z,50.00
2024-05-09T04:47:28.091Z,50.60
2024-05-09T04:48:28.068Z,51.12
2024-05-09T04:49:27.948Z,50.39
2024-05-09T04:50:35.954Z,51.40
2024-05-09T04:51:28.909Z,51.40
2024-05-09T04:52:27.916Z,50.08
2024-05-09T04:53:27.965Z,49.67
2024-05-09T04:54:34.282Z,47.39
2024-05-09T04:55:28.916Z,47.42
2024-05-09T04:56:27.936Z,47.58
2024-05-09T04:57:27.966Z,45.37
2024-05-09T04:58:27.909Z,43.63
2024-05-09T04:59:27.972Z,42.16
2024-05-09T05:00:35.517Z,50.56
2024-05-09T05:01:28.997Z,50.59
2024-05-09T05:02:27.998Z,49.32
2024-05-09T05:03:28.046Z,49.63
2024-05-09T05:04:27.950Z,49.51
2024-05-09T05:05:27.972Z,50.48
2024-05-09T05:06:27.926Z,50.00
2024-05-09T05:07:27.942Z,50.83
2024-05-09T05:08:27.924Z,52.80
2024-05-09T05:09:27.932Z,52.38
2024-05-09T05:10:33.673Z,50.35
2024-05-09T05:11:29.126Z,50.39
2024-05-09T05:12:28.134Z,50.33
2024-05-09T05:13:27.939Z,50.36
2024-05-09T05:14:28.099Z,48.63
2024-05-09T05:15:27.955Z,48.21
2024-05-09T05:16:27.958Z,51.04
2024-05-09T05:17:28.103Z,50.00
2024-05-09T05:18:28.466Z,51.01
2024-05-09T05:19:28.128Z,51.92
2024-05-09T05:20:33.405Z,50.91
2024-05-09T05:21:29.027Z,50.97
2024-05-09T05:22:27.953Z,51.09
2024-05-09T05:23:28.134Z,51.22
2024-05-09T05:24:27.974Z,51.62
2024-05-09T05:25:27.970Z,50.86
2024-05-09T05:26:28.017Z,50.94
2024-05-09T05:27:27.968Z,50.59
2024-05-09T05:28:27.985Z,52.00
2024-05-09T05:29:28.020Z,53.75
2024-05-09T05:30:32.606Z,52.21
2024-05-09T05:31:28.034Z,52.29
2024-05-09T05:32:28.181Z,50.65
2024-05-09T05:33:28.252Z,52.53
2024-05-09T05:34:28.014Z,52.65
2024-05-09T05:35:28.104Z,52.81
2024-05-09T05:36:27.983Z,54.99
2024-05-09T05:37:27.982Z,54.45
2024-05-09T05:38:28.673Z,53.27
2024-05-09T05:39:27.974Z,54.03
2024-05-09T05:40:35.412Z,55.13
2024-05-09T05:41:29.185Z,55.17
2024-05-09T05:42:28.049Z,55.32
2024-05-09T05:43:28.052Z,55.17
2024-05-09T05:44:28.075Z,55.56
2024-05-09T05:45:28.033Z,56.16
2024-05-09T05:46:28.041Z,55.61
2024-05-09T05:47:28.193Z,55.67
2024-05-09T05:48:28.297Z,56.19
2024-05-09T05:49:28.080Z,56.25
2024-05-09T05:50:35.347Z,56.22
2024-05-09T05:51:29.036Z,56.29
2024-05-09T05:52:28.062Z,56.72
2024-05-09T05:53:28.075Z,56.96
2024-05-09T05:54:28.033Z,56.25
2024-05-09T05:55:28.082Z,56.39
2024-05-09T05:56:28.185Z,53.85
2024-05-09T05:57:28.091Z,54.97
2024-05-09T05:58:28.068Z,55.26
2024-05-09T05:59:28.123Z,54.04
2024-05-09T06:00:34.719Z,52.91
2024-05-09T06:01:29.244Z,52.95
2024-05-09T06:02:28.103Z,53.21
2024-05-09T06:03:28.061Z,51.50
2024-05-09T06:04:28.151Z,53.04
2024-05-09T06:05:28.116Z,52.91
2024-05-09T06:06:28.091Z,53.25
2024-05-09T06:07:28.098Z,53.09
2024-05-09T06:08:30.306Z,52.04
2024-05-09T06:09:28.236Z,51.22
2024-05-09T06:10:35.127Z,51.30
2024-05-09T06:11:29.385Z,51.32
2024-05-09T06:12:28.409Z,51.67
2024-05-09T06:13:28.295Z,50.64
2024-05-09T06:14:28.389Z,50.90
2024-05-09T06:15:28.331Z,51.41
2024-05-09T06:16:28.313Z,52.69
2024-05-09T06:17:28.452Z,51.21
2024-05-09T06:18:28.499Z,52.76
2024-05-09T06:19:28.566Z,51.61
2024-05-09T06:20:35.250Z,53.36
2024-05-09T06:21:29.330Z,52.47
2024-05-09T06:22:30.318Z,51.53
2024-05-09T06:23:28.410Z,50.25
2024-05-09T06:24:28.304Z,50.16
2024-05-09T06:25:28.310Z,50.98
2024-05-09T06:26:28.362Z,52.01
2024-05-09T06:27:28.303Z,53.58
2024-05-09T06:28:28.340Z,51.82
2024-05-09T06:29:28.498Z,51.57
2024-05-09T06:30:37.008Z,50.00
2024-05-09T06:31:29.375Z,50.14
2024-05-09T06:32:28.500Z,50.00
2024-05-09T06:33:28.679Z,49.84
2024-05-09T06:34:28.422Z,50.38
2024-05-09T06:35:28.581Z,49.11
2024-05-09T06:36:28.359Z,50.56
2024-05-09T06:37:28.390Z,51.12
2024-05-09T06:38:28.401Z,50.00
2024-05-09T06:39:28.363Z,52.12
2024-05-09T06:40:36.481Z,51.25
2024-05-09T06:41:29.488Z,51.30
2024-05-09T06:42:28.412Z,51.27
2024-05-09T06:43:28.403Z,51.43
2024-05-09T06:44:28.523Z,50.67
2024-05-09T06:45:28.410Z,48.77
2024-05-09T06:46:28.413Z,50.29
2024-05-09T06:47:28.621Z,52.59
2024-05-09T06:48:28.625Z,52.61
2024-05-09T06:49:28.588Z,52.61
2024-05-09T06:50:35.620Z,52.17
2024-05-09T06:51:29.414Z,52.26
2024-05-09T06:52:28.420Z,50.75
2024-05-09T06:53:28.503Z,51.38
2024-05-09T06:54:28.440Z,48.33
2024-05-09T06:55:28.419Z,48.03
2024-05-09T06:56:28.461Z,51.18
2024-05-09T06:57:28.433Z,50.06
2024-05-09T06:58:28.483Z,51.22
2024-05-09T06:59:28.663Z,50.00
2024-05-09T07:00:35.732Z,50.00
2024-05-09T07:01:29.464Z,49.83
2024-05-09T07:02:28.521Z,48.88
2024-05-09T07:03:28.632Z,49.11
2024-05-09T07:04:28.594Z,46.58
2024-05-09T07:05:28.540Z,45.07
2024-05-09T07:06:28.485Z,50.32
2024-05-09T07:07:28.468Z,51.25
2024-05-09T07:08:28.500Z,50.86
2024-05-09T07:09:28.436Z,50.00
2024-05-09T07:10:34.127Z,50.00
2024-05-09T07:11:29.565Z,50.02
2024-05-09T07:12:28.618Z,48.92
2024-05-09T07:13:28.489Z,47.21
2024-05-09T07:14:28.564Z,46.93
2024-05-09T07:15:28.554Z,45.04
2024-05-09T07:16:28.455Z,50.00
2024-05-09T07:17:28.576Z,50.52
2024-05-09T07:18:28.563Z,50.00
2024-05-09T07:19:28.635Z,50.76
2024-05-09T07:20:34.380Z,51.59
2024-05-09T07:21:28.475Z,50.16
2024-05-09T07:22:28.497Z,49.47
2024-05-09T07:23:28.538Z,47.08
2024-05-09T07:24:28.493Z,46.70
2024-05-09T07:25:28.703Z,43.81
2024-05-09T07:26:28.565Z,52.93
2024-05-09T07:27:28.477Z,51.46
2024-05-09T07:28:28.472Z,51.42
2024-05-09T07:29:28.665Z,49.57
2024-05-09T07:30:33.338Z,48.89
2024-05-09T07:31:29.497Z,49.35
2024-05-09T07:32:28.633Z,48.68
2024-05-09T07:33:28.840Z,46.56
2024-05-09T07:34:28.564Z,46.45
2024-05-09T07:35:28.755Z,44.96
2024-05-09T07:36:28.492Z,50.46
2024-05-09T07:37:28.477Z,50.72
2024-05-09T07:38:28.536Z,50.57
2024-05-09T07:39:28.506Z,51.06
2024-05-09T07:40:35.059Z,51.43
2024-05-09T07:41:29.561Z,51.45
2024-05-09T07:42:28.509Z,50.65
2024-05-09T07:43:28.507Z,49.75
2024-05-09T07:44:28.573Z,50.35
2024-05-09T07:45:45.022Z,50.51
2024-05-09T07:47:36.930Z,50.81
2024-05-09T07:48:57.288Z,51.47
2024-05-09T07:50:01.160Z,51.54
2024-05-09T07:53:32.483Z,51.60
2024-05-09T07:53:40.069Z,51.64
2024-05-09T07:54:29.690Z,51.67
2024-05-09T07:55:28.773Z,52.51
2024-05-09T07:56:28.853Z,53.77
2024-05-09T07:57:28.637Z,56.16
2024-05-09T07:58:28.584Z,57.74
2024-05-09T07:59:28.554Z,57.98
2024-05-09T08:00:31.539Z,58.72
2024-05-09T08:01:28.801Z,58.76
2024-05-09T08:02:28.780Z,58.88
2024-05-09T08:03:28.886Z,59.48
2024-05-09T08:04:28.674Z,59.58
2024-05-09T08:05:28.784Z,60.84
2024-05-09T08:06:28.590Z,61.81
2024-05-09T08:07:28.564Z,60.15
2024-05-09T08:08:28.570Z,61.59
2024-05-09T08:09:28.670Z,62.33
2024-05-09T08:10:29.311Z,61.93
2024-05-09T08:11:28.636Z,61.53
2024-05-09T08:12:28.674Z,60.69
2024-05-09T08:13:28.672Z,59.99
2024-05-09T08:14:28.577Z,59.34
2024-05-09T08:15:28.817Z,58.19
2024-05-09T08:16:28.761Z,57.82
2024-05-09T08:17:28.697Z,58.60
2024-05-09T08:18:28.929Z,58.19
2024-05-09T08:19:28.661Z,57.20
2024-05-09T08:20:33.478Z,56.36
2024-05-09T08:21:29.632Z,56.39
2024-05-09T08:22:28.598Z,55.77
2024-05-09T08:23:28.756Z,56.44
2024-05-09T08:24:28.641Z,55.08
2024-05-09T08:25:28.638Z,54.58
2024-05-09T08:26:28.601Z,53.87
2024-05-09T08:27:28.611Z,54.31
2024-05-09T08:28:28.669Z,54.79
2024-05-09T08:29:28.603Z,53.25
2024-05-09T08:30:33.855Z,53.46
2024-05-09T08:31:29.673Z,53.19
2024-05-09T08:32:28.676Z,52.80
2024-05-09T08:33:28.829Z,52.18
2024-05-09T08:34:28.780Z,51.03
2024-05-09T08:35:28.599Z,49.69
2024-05-09T08:36:28.642Z,50.00
2024-05-09T08:37:32.829Z,50.59
2024-05-09T08:38:29.646Z,50.23
2024-05-09T08:39:28.673Z,50.21
2024-05-09T08:40:34.556Z,49.25
2024-05-09T08:41:28.614Z,49.73
2024-05-09T08:42:28.746Z,50.58
2024-05-09T08:43:28.749Z,48.90
2024-05-09T08:44:28.669Z,49.01
2024-05-09T08:45:28.695Z,47.78
2024-05-09T08:46:28.791Z,51.22
2024-05-09T08:47:28.709Z,50.21
2024-05-09T08:48:28.853Z,50.33
2024-05-09T08:49:28.799Z,50.38
2024-05-09T08:50:36.062Z,50.49
2024-05-09T08:51:29.665Z,50.51
2024-05-09T08:52:28.652Z,50.50
2024-05-09T08:53:28.659Z,48.52
2024-05-09T08:54:28.692Z,48.57
2024-05-09T08:55:28.627Z,47.73
2024-05-09T08:56:28.632Z,51.04
2024-05-09T08:57:28.622Z,51.75
2024-05-09T08:58:28.660Z,52.02
2024-05-09T08:59:28.651Z,50.00
2024-05-09T09:00:36.310Z,50.00
2024-05-09T09:01:29.698Z,50.07
2024-05-09T09:02:28.753Z,50.00
2024-05-09T09:03:28.789Z,48.47
2024-05-09T09:04:28.814Z,48.54
2024-05-09T09:05:28.759Z,47.16
2024-05-09T09:06:28.713Z,51.05
2024-05-09T09:07:28.706Z,50.17
2024-05-09T09:08:28.683Z,50.27
2024-05-09T09:09:28.697Z,50.45
2024-05-09T09:10:32.130Z,50.00
2024-05-09T09:11:28.738Z,50.02
2024-05-09T09:12:28.661Z,50.00
2024-05-09T09:13:28.682Z,49.94
2024-05-09T09:14:28.669Z,49.32
2024-05-09T09:15:28.698Z,49.40
2024-05-09T09:16:28.727Z,50.61
2024-05-09T09:17:28.747Z,50.42
2024-05-09T09:18:28.996Z,50.13
2024-05-09T09:19:28.745Z,50.73
2024-05-09T09:20:34.039Z,50.04
2024-05-09T09:21:29.694Z,50.07
2024-05-09T09:22:28.716Z,49.50
2024-05-09T09:23:28.721Z,49.62
2024-05-09T09:24:28.693Z,49.92
2024-05-09T09:25:28.720Z,50.29
2024-05-09T09:26:28.660Z,50.39
2024-05-09T09:27:28.704Z,50.12
2024-05-09T09:28:28.682Z,51.67
2024-05-09T09:29:28.684Z,50.71
2024-05-09T09:30:36.275Z,51.81
2024-05-09T09:31:29.813Z,51.84
2024-05-09T09:32:28.780Z,52.05
2024-05-09T09:33:28.782Z,52.98
2024-05-09T09:34:28.867Z,55.67
2024-05-09T09:35:28.675Z,60.58
2024-05-09T09:36:28.717Z,63.51
2024-05-09T09:37:28.693Z,66.18
2024-05-09T09:38:28.704Z,69.68
2024-05-09T09:39:28.733Z,73.31
2024-05-09T09:40:32.247Z,72.16
2024-05-09T09:41:29.694Z,72.41
2024-05-09T09:42:28.726Z,73.83
2024-05-09T09:43:28.730Z,77.64
2024-05-09T09:44:28.751Z,83.45
2024-05-09T09:45:28.727Z,72.90
2024-05-09T09:46:28.814Z,75.72
2024-05-09T09:47:28.754Z,81.56
2024-05-09T09:48:28.800Z,91.27
2024-05-09T09:49:28.766Z,107.74
2024-05-09T09:50:34.262Z,73.46
2024-05-09T09:51:29.803Z,73.54
2024-05-09T09:52:28.803Z,73.56
2024-05-09T09:53:28.738Z,79.28
2024-05-09T09:54:28.771Z,90.00
2024-05-09T09:55:28.760Z,108.01
2024-05-09T09:56:28.713Z,128.95
2024-05-09T09:57:28.777Z,139.90
2024-05-09T09:58:28.756Z,140.96
2024-05-09T09:59:28.741Z,144.07
2024-05-09T10:00:32.887Z,148.63
2024-05-09T10:01:29.872Z,148.84
2024-05-09T10:02:28.854Z,150.00
2024-05-09T10:03:28.827Z,153.18
2024-05-09T10:04:28.908Z,158.40
2024-05-09T10:05:29.022Z,165.57
2024-05-09T10:06:28.808Z,149.28
2024-05-09T10:07:28.760Z,152.41
2024-05-09T10:08:28.829Z,157.98
2024-05-09T10:09:28.758Z,166.20
2024-05-09T10:10:32.454Z,182.26
2024-05-09T10:11:28.775Z,149.85
2024-05-09T10:12:28.840Z,154.43
2024-05-09T10:13:28.809Z,163.13
2024-05-09T10:14:28.774Z,177.83
2024-05-09T10:15:28.828Z,195.20
2024-05-09T10:16:28.820Z,196.09
2024-05-09T10:17:28.915Z,199.00
2024-05-09T10:18:31.195Z,199.55
2024-05-09T10:19:28.864Z,198.92
2024-05-09T10:20:32.545Z,200.19
2024-05-09T10:21:28.810Z,199.81
2024-05-09T10:22:28.793Z,200.74
2024-05-09T10:23:28.951Z,203.66
2024-05-09T10:24:28.783Z,207.16
2024-05-09T10:25:28.873Z,214.86
2024-05-09T10:26:28.799Z,199.34
2024-05-09T10:27:28.892Z,200.00
2024-05-09T10:28:28.847Z,197.47
2024-05-09T10:29:28.773Z,200.00
2024-05-09T10:30:34.250Z,197.21
2024-05-09T10:31:29.839Z,197.39
2024-05-09T10:32:28.901Z,197.77
2024-05-09T10:33:28.886Z,198.67
2024-05-09T10:34:28.951Z,202.33
2024-05-09T10:35:28.807Z,206.38
2024-05-09T10:36:28.818Z,199.64
2024-05-09T10:37:28.808Z,198.34
2024-05-09T10:38:28.783Z,199.72
2024-05-09T10:39:28.819Z,198.83
2024-05-09T10:40:31.506Z,199.17
2024-05-09T10:41:28.803Z,199.25
2024-05-09T10:42:28.834Z,199.43
2024-05-09T10:43:28.895Z,199.83
2024-05-09T10:44:28.818Z,201.73
2024-05-09T10:45:28.807Z,202.58
2024-05-09T10:46:28.879Z,199.56
2024-05-09T10:47:28.983Z,200.00
2024-05-09T10:48:29.007Z,198.67
2024-05-09T10:49:28.881Z,200.00
2024-05-09T10:50:32.166Z,199.68
2024-05-09T10:51:29.842Z,199.71
2024-05-09T10:52:28.857Z,200.17
2024-05-09T10:53:28.872Z,200.48
2024-05-09T10:54:28.868Z,201.16
2024-05-09T10:55:28.852Z,204.59
2024-05-09T10:56:28.831Z,198.92
2024-05-09T10:57:28.876Z,199.55
2024-05-09T10:58:28.851Z,199.18
2024-05-09T10:59:28.816Z,199.79
2024-05-09T11:00:33.853Z,199.21
2024-05-09T11:01:29.965Z,199.27
2024-05-09T11:02:28.951Z,199.54
2024-05-09T11:03:29.059Z,200.13
2024-05-09T11:04:28.951Z,199.80
2024-05-09T11:05:29.015Z,202.33
2024-05-09T11:06:28.899Z,198.24
2024-05-09T11:07:28.956Z,200.00
2024-05-09T11:08:28.868Z,200.01
2024-05-09T11:09:28.908Z,200.11
2024-05-09T11:10:33.760Z,199.55
2024-05-09T11:11:29.907Z,200.12
2024-05-09T11:12:28.898Z,200.05
2024-05-09T11:13:28.870Z,200.48
2024-05-09T11:14:28.837Z,200.91
2024-05-09T11:15:28.896Z,202.04
2024-05-09T11:16:28.868Z,197.91
2024-05-09T11:17:29.018Z,198.20
2024-05-09T11:18:31.704Z,198.47
2024-05-09T11:19:29.995Z,198.50
2024-05-09T11:20:29.998Z,198.07
2024-05-09T11:21:28.912Z,198.48
2024-05-09T11:22:28.905Z,198.58
2024-05-09T11:23:28.862Z,198.62
2024-05-09T11:24:28.941Z,198.92
2024-05-09T11:25:28.878Z,200.56
2024-05-09T11:26:28.879Z,197.74
2024-05-09T11:27:28.920Z,198.90
2024-05-09T11:28:29.185Z,197.54
2024-05-09T11:29:28.906Z,196.80
2024-05-09T11:30:31.893Z,199.25
2024-05-09T11:31:28.987Z,199.27
2024-05-09T11:32:29.190Z,198.77
2024-05-09T11:33:28.990Z,197.80
2024-05-09T11:34:29.029Z,198.35
2024-05-09T11:35:28.900Z,198.58
2024-05-09T11:36:28.981Z,199.72
2024-05-09T11:37:28.965Z,199.74
2024-05-09T11:38:28.905Z,196.87
2024-05-09T11:39:28.957Z,195.74
2024-05-09T11:40:34.159Z,196.95
2024-05-09T11:41:29.910Z,197.04
2024-05-09T11:42:28.979Z,196.95
2024-05-09T11:43:29.004Z,197.20
2024-05-09T11:44:28.898Z,197.64
2024-05-09T11:45:28.964Z,197.88
2024-05-09T11:46:28.984Z,197.63
2024-05-09T11:47:28.999Z,198.16
2024-05-09T11:48:29.048Z,197.55
2024-05-09T11:49:29.014Z,198.18
2024-05-09T11:50:33.154Z,197.73
2024-05-09T11:51:29.971Z,197.75
2024-05-09T11:52:28.946Z,197.99
2024-05-09T11:53:28.963Z,197.98
2024-05-09T11:54:29.147Z,198.73
2024-05-09T11:55:29.010Z,200.14
2024-05-09T11:56:28.972Z,199.82
2024-05-09T11:57:28.953Z,198.92
2024-05-09T11:58:28.989Z,197.73
2024-05-09T11:59:28.941Z,197.91
2024-05-09T12:00:34.528Z,197.83
2024-05-09T12:01:30.121Z,197.86
2024-05-09T12:02:29.035Z,198.06
2024-05-09T12:03:29.001Z,198.73
2024-05-09T12:04:29.094Z,198.13
2024-05-09T12:05:29.192Z,198.29
2024-05-09T12:06:28.968Z,200.00
2024-05-09T12:07:28.963Z,199.35
2024-05-09T12:08:28.963Z,198.84
2024-05-09T12:09:29.035Z,198.92
2024-05-09T12:10:32.910Z,199.32
2024-05-09T12:11:30.048Z,199.36
2024-05-09T12:12:28.957Z,199.51
2024-05-09T12:13:29.034Z,198.80
2024-05-09T12:14:28.947Z,199.70
2024-05-09T12:15:29.053Z,199.57
2024-05-09T12:16:29.057Z,198.21
2024-05-09T12:17:29.059Z,196.97
2024-05-09T12:18:29.145Z,199.79
2024-05-09T12:19:29.002Z,199.44
2024-05-09T12:20:36.121Z,198.24
2024-05-09T12:21:29.975Z,198.25
2024-05-09T12:22:28.955Z,198.52
2024-05-09T12:23:28.988Z,198.59
2024-05-09T12:24:29.028Z,198.77
2024-05-09T12:25:29.035Z,199.36
2024-05-09T12:26:28.976Z,199.01
2024-05-09T12:27:29.009Z,197.29
2024-05-09T12:28:28.998Z,197.52
2024-05-09T12:29:28.981Z,198.57
2024-05-09T12:30:36.251Z,199.03
2024-05-09T12:31:30.092Z,199.03
2024-05-09T12:32:29.100Z,198.68
2024-05-09T12:33:29.043Z,198.64
2024-05-09T12:34:29.020Z,199.52
2024-05-09T12:35:28.989Z,199.82
2024-05-09T12:36:29.036Z,198.98
2024-05-09T12:37:29.036Z,198.54
2024-05-09T12:38:29.007Z,199.78
2024-05-09T12:39:28.999Z,196.09
2024-05-09T12:40:35.776Z,195.81
2024-05-09T12:41:29.981Z,195.87
2024-05-09T12:42:31.259Z,196.00
2024-05-09T12:43:29.148Z,195.87